Time;durP1;ratioP1;P1;durP2;ratioP2;P2;SDS_P1;SDS_P2;PMS_P1;PMS_P2;Temp;Humidity;BMP_temperature;BMP_pressure;BME280_temperature;BME280_humidity;BME280_pressure;Samples;Min_cycle;Max_cycle;Signal;HPM_P1;HPM_P2
2022/03/09 00:01:15;;;;;;;42.00;20.45;;;0.90;85.70;;;;;;5055595;28;20017;-91
2022/03/09 00:03:41;;;;;;;44.47;21.23;;;0.90;86.00;;;;;;5055904;28;20013;-88
2022/03/09 00:06:07;;;;;;;38.53;19.08;;;0.90;86.20;;;;;;5055874;28;20066;-86
2022/03/09 00:08:35;;;;;;;55.75;24.70;;;0.90;86.70;;;;;;5055042;28;20067;-91
2022/03/09 00:11:00;;;;;;;61.50;29.55;;;0.90;86.50;;;;;;5055775;28;20025;-91
2022/03/09 00:13:26;;;;;;;55.97;25.70;;;0.90;86.80;;;;;;5056854;28;20052;-85
2022/03/09 00:15:52;;;;;;;57.97;30.23;;;0.80;86.60;;;;;;5057521;28;20028;-90
2022/03/09 00:18:19;;;;;;;58.88;29.88;;;0.70;86.40;;;;;;5055828;28;20036;-87
2022/03/09 00:20:45;;;;;;;70.13;31.75;;;0.50;86.90;;;;;;5056144;28;20024;-91
2022/03/09 00:23:11;;;;;;;73.10;31.83;;;0.50;88.00;;;;;;5055728;28;20032;-92
2022/03/09 00:25:38;;;;;;;70.70;34.83;;;0.30;88.70;;;;;;5053457;28;20017;-86
2022/03/09 00:28:03;;;;;;;68.20;34.03;;;0.20;88.80;;;;;;5056060;28;20025;-86
2022/03/09 00:30:29;;;;;;;74.97;35.00;;;0.20;90.40;;;;;;5055017;28;20541;-86
2022/03/09 00:32:55;;;;;;;77.55;37.28;;;0.20;90.70;;;;;;5055376;28;20045;-85
2022/03/09 00:35:22;;;;;;;83.53;38.47;;;0.10;90.90;;;;;;5056081;28;20021;-85
2022/03/09 00:37:48;;;;;;;73.45;34.33;;;0.10;91.70;;;;;;5056966;28;20123;-89
2022/03/09 00:40:14;;;;;;;88.80;40.17;;;0.10;92.40;;;;;;5055968;28;20112;-88
2022/03/09 00:42:40;;;;;;;98.20;42.45;;;0.10;92.90;;;;;;5055711;28;20021;-86
2022/03/09 00:45:07;;;;;;;100.07;47.38;;;0.10;92.70;;;;;;5055787;28;20021;-90
2022/03/09 00:47:34;;;;;;;111.18;48.67;;;0.10;92.80;;;;;;5054854;28;20045;-85
2022/03/09 00:50:00;;;;;;;99.88;44.85;;;0.10;93.30;;;;;;5054156;28;20021;-85
2022/03/09 00:52:26;;;;;;;86.65;40.45;;;0.10;93.30;;;;;;5054378;28;20159;-92
2022/03/09 00:54:52;;;;;;;93.35;43.22;;;0.00;93.20;;;;;;5055715;28;20054;-91
2022/03/09 00:57:17;;;;;;;82.35;43.05;;;0.00;93.00;;;;;;5053714;28;20488;-85
2022/03/09 00:59:43;;;;;;;90.15;42.72;;;0.00;93.30;;;;;;5054387;28;20405;-91
2022/03/09 01:02:09;;;;;;;89.25;39.63;;;0.00;93.70;;;;;;5055091;28;20068;-85
2022/03/09 01:04:38;;;;;;;97.30;43.65;;;0.00;93.90;;;;;;5055580;28;20057;-89
2022/03/09 01:07:07;;;;;;;93.53;44.80;;;0.00;93.90;;;;;;5054239;28;20036;-84
2022/03/09 01:09:32;;;;;;;104.70;46.58;;;0.00;94.30;;;;;;5054137;28;20023;-85
2022/03/09 01:11:58;;;;;;;100.38;44.97;;;0.00;94.60;;;;;;5053399;28;20115;-84
2022/03/09 01:14:24;;;;;;;100.53;48.00;;;0.00;94.00;;;;;;5053676;28;20029;-91
2022/03/09 01:16:50;;;;;;;98.20;45.90;;;0.00;94.50;;;;;;5053204;28;20044;-91
2022/03/09 01:19:16;;;;;;;92.55;45.28;;;0.00;94.50;;;;;;5054278;28;20029;-90
2022/03/09 01:21:42;;;;;;;92.93;43.58;;;0.00;94.30;;;;;;5054659;28;20025;-87
2022/03/09 01:24:08;;;;;;;89.47;42.70;;;0.00;94.70;;;;;;5054253;28;20438;-92
2022/03/09 01:26:34;;;;;;;100.47;47.70;;;0.00;94.70;;;;;;5055070;28;20028;-85
2022/03/09 01:29:00;;;;;;;96.18;45.90;;;0.00;94.80;;;;;;5055094;28;20386;-84
2022/03/09 01:31:26;;;;;;;102.75;45.55;;;0.00;95.30;;;;;;5054075;28;20025;-86
2022/03/09 01:33:52;;;;;;;85.63;43.13;;;0.00;95.70;;;;;;5056361;28;20029;-91
2022/03/09 01:36:18;;;;;;;100.00;47.00;;;0.00;95.80;;;;;;5053726;28;20054;-90
2022/03/09 01:38:44;;;;;;;95.05;45.05;;;-0.10;96.20;;;;;;5053637;28;20029;-85
2022/03/09 01:41:11;;;;;;;98.47;45.00;;;-0.10;96.60;;;;;;5055951;28;20028;-84
2022/03/09 01:43:37;;;;;;;95.85;45.17;;;-0.10;96.90;;;;;;5053954;28;20059;-85
2022/03/09 01:46:03;;;;;;;105.57;45.42;;;0.00;97.00;;;;;;5053527;28;20028;-90
2022/03/09 01:48:29;;;;;;;103.30;48.40;;;0.00;96.90;;;;;;5053680;28;20058;-85
2022/03/09 01:50:55;;;;;;;108.28;51.25;;;0.00;96.50;;;;;;5053049;28;20475;-89
2022/03/09 01:53:21;;;;;;;91.88;45.50;;;0.00;96.00;;;;;;5055904;28;20082;-90
2022/03/09 01:55:47;;;;;;;95.78;45.50;;;0.00;96.30;;;;;;5055004;28;20029;-86
2022/03/09 01:58:12;;;;;;;99.60;45.45;;;0.00;96.40;;;;;;5054335;28;20021;-91
2022/03/09 02:00:38;;;;;;;102.65;47.28;;;0.00;96.30;;;;;;5052169;28;20088;-85
2022/03/09 02:03:04;;;;;;;102.00;47.63;;;0.00;96.50;;;;;;5053218;28;20435;-87
2022/03/09 02:05:30;;;;;;;103.47;44.92;;;0.00;96.70;;;;;;5053096;28;20466;-89
2022/03/09 02:10:40;;;;;;;103.13;45.78;;;-0.10;97.30;;;;;;5054018;28;20451;-90
2022/03/09 02:13:09;;;;;;;90.13;45.63;;;-0.10;98.10;;;;;;5055177;28;20053;-90
2022/03/09 02:15:35;;;;;;;105.63;51.00;;;-0.20;98.70;;;;;;5052557;28;20052;-85
2022/03/09 02:18:02;;;;;;;96.97;44.50;;;-0.20;99.90;;;;;;5053733;28;20068;-86
2022/03/09 02:20:28;;;;;;;110.30;50.00;;;-0.20;99.40;;;;;;5053617;28;20035;-85
2022/03/09 02:22:54;;;;;;;105.88;49.38;;;-0.20;99.90;;;;;;5054348;28;20025;-88
2022/03/09 02:25:20;;;;;;;95.85;45.22;;;-0.30;99.90;;;;;;5052926;28;20017;-85
2022/03/09 02:27:46;;;;;;;112.18;48.35;;;-0.30;99.90;;;;;;5052611;28;20021;-86
2022/03/09 02:30:17;;;;;;;97.05;46.58;;;-0.30;99.90;;;;;;5054939;28;20360;-85
2022/03/09 02:32:48;;;;;;;95.38;46.67;;;-0.20;99.90;;;;;;5052947;28;20032;-91
2022/03/09 02:35:16;;;;;;;97.63;46.35;;;-0.20;99.90;;;;;;5053421;28;20025;-90
2022/03/09 02:37:42;;;;;;;98.55;45.50;;;-0.20;99.90;;;;;;5053712;28;20076;-88
2022/03/09 02:40:10;;;;;;;101.30;48.50;;;-0.20;99.90;;;;;;5052977;28;20218;-86
2022/03/09 02:42:36;;;;;;;104.72;45.90;;;-0.20;99.90;;;;;;5054136;28;20360;-85
2022/03/09 02:45:04;;;;;;;99.15;45.13;;;-0.30;99.90;;;;;;5052833;28;20024;-89
2022/03/09 02:47:45;;;;;;;99.43;45.15;;;-0.30;99.90;;;;;;5053325;28;20017;-91
2022/03/09 02:50:12;;;;;;;97.97;47.15;;;-0.30;99.90;;;;;;5052074;28;20032;-91
2022/03/09 02:52:42;;;;;;;90.57;45.55;;;-0.30;99.90;;;;;;5052704;28;20029;-84
2022/03/09 02:55:09;;;;;;;99.90;45.95;;;-0.20;99.90;;;;;;5052871;28;20025;-85
2022/03/09 02:57:35;;;;;;;89.88;42.58;;;-0.20;99.90;;;;;;5053861;28;20505;-90
2022/03/09 03:00:01;;;;;;;84.60;40.47;;;-0.30;99.90;;;;;;5054041;28;20498;-88
2022/03/09 03:02:27;;;;;;;80.07;39.20;;;-0.30;99.90;;;;;;5054779;28;20036;-85
2022/03/09 03:04:53;;;;;;;85.75;40.08;;;-0.30;99.90;;;;;;5052832;28;20021;-85
2022/03/09 03:07:18;;;;;;;77.55;37.78;;;-0.30;99.90;;;;;;5053761;28;20471;-87
2022/03/09 03:09:44;;;;;;;81.03;38.70;;;-0.30;99.90;;;;;;5053098;28;20032;-87
2022/03/09 03:12:10;;;;;;;81.03;36.67;;;-0.30;99.90;;;;;;5054794;28;20074;-85
2022/03/09 03:14:35;;;;;;;80.28;38.67;;;-0.30;99.90;;;;;;5051551;28;20116;-87
2022/03/09 03:17:01;;;;;;;84.82;39.45;;;-0.30;99.90;;;;;;5053092;28;20083;-84
2022/03/09 03:19:27;;;;;;;75.80;39.00;;;-0.20;99.90;;;;;;5054190;28;20037;-88
2022/03/09 03:21:53;;;;;;;82.70;37.28;;;-0.20;99.90;;;;;;5051641;28;20478;-84
2022/03/09 03:24:18;;;;;;;75.03;36.72;;;-0.20;99.90;;;;;;5053305;28;20056;-85
2022/03/09 03:26:44;;;;;;;78.47;38.75;;;-0.20;99.90;;;;;;5052283;28;20067;-86
2022/03/09 03:29:10;;;;;;;74.30;36.70;;;-0.10;99.90;;;;;;5054613;28;20043;-88
2022/03/09 03:31:36;;;;;;;77.75;37.70;;;-0.10;99.90;;;;;;5053767;28;20029;-89
2022/03/09 03:34:02;;;;;;;81.13;37.55;;;-0.10;99.90;;;;;;5052864;28;20021;-85
2022/03/09 03:36:28;;;;;;;79.28;40.28;;;-0.10;99.90;;;;;;5053079;28;20539;-85
2022/03/09 03:38:54;;;;;;;88.70;40.05;;;0.00;99.90;;;;;;5051611;28;20060;-85
2022/03/09 03:41:20;;;;;;;84.15;39.35;;;0.00;99.90;;;;;;5052350;28;20428;-85
2022/03/09 03:43:46;;;;;;;102.82;48.92;;;0.00;99.90;;;;;;5053435;28;20100;-84
2022/03/09 03:46:13;;;;;;;87.35;43.75;;;0.00;99.90;;;;;;5053575;28;20052;-90
2022/03/09 03:48:38;;;;;;;82.65;42.30;;;0.00;99.90;;;;;;5051394;28;20042;-84
2022/03/09 03:51:04;;;;;;;83.53;40.58;;;0.00;99.90;;;;;;5054088;28;20021;-86
2022/03/09 03:53:30;;;;;;;82.68;39.40;;;0.00;99.90;;;;;;5053645;28;20032;-85
2022/03/09 03:55:56;;;;;;;80.20;39.15;;;0.10;99.90;;;;;;5052499;28;20052;-92
2022/03/09 03:58:21;;;;;;;76.15;36.38;;;0.10;99.90;;;;;;5052022;28;20025;-90
2022/03/09 04:00:47;;;;;;;71.97;37.05;;;0.10;99.90;;;;;;5052471;28;20064;-85
2022/03/09 04:03:13;;;;;;;81.85;40.53;;;0.10;99.90;;;;;;5057458;28;20021;-91
2022/03/09 04:05:39;;;;;;;76.93;38.67;;;0.10;99.90;;;;;;5056727;28;20036;-90
2022/03/09 04:08:05;;;;;;;81.85;37.08;;;0.10;99.90;;;;;;5055410;28;20048;-87
2022/03/09 04:10:31;;;;;;;77.43;36.90;;;0.20;99.90;;;;;;5055840;28;20075;-91
2022/03/09 04:13:00;;;;;;;80.78;38.42;;;0.10;99.90;;;;;;5056345;28;20033;-91
2022/03/09 04:15:27;;;;;;;71.35;35.63;;;0.10;99.90;;;;;;5055656;28;20363;-91
2022/03/09 04:17:53;;;;;;;79.50;39.33;;;0.10;99.90;;;;;;5055454;28;20123;-85
2022/03/09 04:20:18;;;;;;;88.18;39.80;;;0.10;99.90;;;;;;5056152;28;20469;-88
2022/03/09 04:22:45;;;;;;;78.22;39.85;;;0.10;99.90;;;;;;5055260;28;20028;-91
2022/03/09 04:25:11;;;;;;;80.13;40.58;;;0.10;99.90;;;;;;5055586;28;20025;-91
2022/03/09 04:27:37;;;;;;;72.70;35.25;;;0.20;99.90;;;;;;5057261;28;20025;-91
2022/03/09 04:30:04;;;;;;;82.63;38.13;;;0.20;99.90;;;;;;5054923;28;20497;-88
2022/03/09 04:32:31;;;;;;;71.97;35.55;;;0.10;99.90;;;;;;5057695;28;20028;-91
2022/03/09 04:34:56;;;;;;;68.50;32.35;;;0.20;99.90;;;;;;5055483;28;20028;-90
2022/03/09 04:37:23;;;;;;;64.95;33.08;;;0.10;99.90;;;;;;5054819;28;20483;-85
2022/03/09 04:39:49;;;;;;;75.97;36.92;;;0.10;99.90;;;;;;5056016;28;20041;-90
2022/03/09 04:42:15;;;;;;;66.65;33.63;;;0.10;99.90;;;;;;5054373;28;20083;-85
2022/03/09 04:44:40;;;;;;;68.50;36.58;;;0.00;99.90;;;;;;5053986;28;20021;-90
2022/03/09 04:47:06;;;;;;;71.50;33.45;;;0.10;99.90;;;;;;5057574;28;20060;-90
2022/03/09 04:49:32;;;;;;;69.70;31.92;;;0.00;99.90;;;;;;5054626;28;20021;-90
2022/03/09 04:51:58;;;;;;;74.20;34.63;;;0.00;99.90;;;;;;5055891;28;20048;-91
2022/03/09 04:54:24;;;;;;;67.97;34.35;;;0.00;99.90;;;;;;5054654;28;20075;-85
2022/03/09 04:56:49;;;;;;;74.95;36.15;;;0.00;99.90;;;;;;5056235;28;20548;-91
2022/03/09 04:59:17;;;;;;;70.88;37.78;;;-0.10;99.90;;;;;;5054080;28;20501;-91
2022/03/09 05:01:42;;;;;;;67.65;34.75;;;0.00;99.90;;;;;;5055453;28;20017;-91
2022/03/09 05:04:08;;;;;;;75.32;36.22;;;-0.10;99.90;;;;;;5054451;28;20541;-91
2022/03/09 05:06:34;;;;;;;79.18;37.92;;;0.00;99.90;;;;;;5053245;28;20095;-85
2022/03/09 05:09:00;;;;;;;79.78;37.45;;;-0.10;99.90;;;;;;5054074;28;20045;-85
2022/03/09 05:11:26;;;;;;;80.25;39.95;;;-0.10;99.90;;;;;;5054619;28;20025;-85
2022/03/09 05:13:51;;;;;;;82.55;38.88;;;-0.20;99.90;;;;;;5055483;28;20357;-85
2022/03/09 05:16:17;;;;;;;72.00;36.80;;;-0.20;99.90;;;;;;5054075;28;20104;-87
2022/03/09 05:18:43;;;;;;;87.57;42.25;;;-0.20;99.90;;;;;;5055067;28;20041;-85
2022/03/09 05:21:09;;;;;;;122.28;55.58;;;-0.20;99.90;;;;;;5057124;28;20024;-89
2022/03/09 05:23:35;;;;;;;104.35;48.42;;;-0.20;99.90;;;;;;5054572;28;20024;-85
2022/03/09 05:26:01;;;;;;;103.45;48.65;;;-0.30;99.90;;;;;;5053349;28;20021;-90
2022/03/09 05:28:27;;;;;;;115.05;53.22;;;-0.20;99.90;;;;;;5054723;28;20382;-91
2022/03/09 05:30:53;;;;;;;174.10;70.72;;;-0.20;99.90;;;;;;5052982;28;20021;-87
2022/03/09 05:33:18;;;;;;;222.10;87.53;;;-0.10;99.90;;;;;;5055144;28;20488;-86
2022/03/09 05:35:44;;;;;;;359.98;121.95;;;-0.10;99.90;;;;;;5054293;28;20497;-87
2022/03/09 05:38:10;;;;;;;434.20;149.57;;;-0.10;99.90;;;;;;5053732;28;20031;-91
2022/03/09 05:40:36;;;;;;;557.58;198.32;;;-0.10;99.90;;;;;;5054535;28;20072;-88
2022/03/09 05:43:01;;;;;;;556.55;192.82;;;-0.10;99.90;;;;;;5053973;28;20079;-88
2022/03/09 05:45:27;;;;;;;429.08;146.48;;;-0.10;99.90;;;;;;5054332;28;20021;-85
2022/03/09 05:47:53;;;;;;;555.22;199.85;;;-0.10;99.90;;;;;;5054404;28;20028;-91
2022/03/09 05:50:19;;;;;;;610.90;221.45;;;-0.10;99.90;;;;;;5053491;28;20520;-87
2022/03/09 05:52:45;;;;;;;265.33;88.90;;;-0.10;99.90;;;;;;5052656;28;20031;-85
2022/03/09 05:55:11;;;;;;;171.32;61.55;;;0.00;99.90;;;;;;5044060;28;20233;-90
2022/03/09 05:57:37;;;;;;;135.57;52.28;;;0.00;99.90;;;;;;5053143;28;20033;-86
2022/03/09 06:00:04;;;;;;;145.18;55.00;;;0.00;99.90;;;;;;5051326;28;20068;-84
2022/03/09 06:02:29;;;;;;;131.75;55.10;;;0.00;99.90;;;;;;5053810;28;20025;-91
2022/03/09 06:04:55;;;;;;;128.45;51.00;;;0.10;99.90;;;;;;5049339;28;20511;-90
2022/03/09 06:07:21;;;;;;;104.88;45.97;;;0.10;99.90;;;;;;5047681;28;20076;-84
2022/03/09 06:09:46;;;;;;;89.70;40.85;;;0.10;99.90;;;;;;5047723;28;20029;-84
2022/03/09 06:12:12;;;;;;;92.63;41.25;;;0.10;99.90;;;;;;5032838;28;20049;-85
2022/03/09 06:14:38;;;;;;;122.68;47.17;;;0.00;99.90;;;;;;5031700;28;20418;-91
2022/03/09 06:17:04;;;;;;;152.05;57.78;;;0.10;99.90;;;;;;5032688;28;20127;-85
2022/03/09 06:19:29;;;;;;;121.07;48.72;;;0.10;99.90;;;;;;5034478;28;20049;-90
2022/03/09 06:21:55;;;;;;;118.90;49.10;;;0.10;99.90;;;;;;5030868;28;20486;-84
2022/03/09 06:24:21;;;;;;;109.38;46.83;;;0.10;99.90;;;;;;5030050;28;20042;-85
2022/03/09 06:26:49;;;;;;;108.15;43.75;;;0.10;99.90;;;;;;5034275;28;20025;-91
2022/03/09 06:29:15;;;;;;;93.95;40.53;;;0.20;99.90;;;;;;5030741;28;20038;-84
2022/03/09 06:31:45;;;;;;;95.75;42.78;;;0.20;99.90;;;;;;5031257;28;20071;-85
2022/03/09 06:34:11;;;;;;;96.70;42.28;;;0.20;99.90;;;;;;5031136;28;20035;-91
2022/03/09 06:36:37;;;;;;;87.60;40.17;;;0.30;99.90;;;;;;5031495;28;20108;-90
2022/03/09 06:39:03;;;;;;;96.00;39.35;;;0.30;99.90;;;;;;5036285;28;20071;-90
2022/03/09 06:41:29;;;;;;;87.15;38.97;;;0.30;99.90;;;;;;5045797;28;20065;-91
2022/03/09 06:43:55;;;;;;;84.47;40.05;;;0.40;99.90;;;;;;5052375;28;20014;-91
2022/03/09 06:46:22;;;;;;;82.43;36.60;;;0.30;99.90;;;;;;5052214;28;20108;-90
2022/03/09 06:48:48;;;;;;;82.30;39.38;;;0.40;99.90;;;;;;5051487;28;20111;-90
2022/03/09 06:51:13;;;;;;;79.03;38.95;;;0.40;99.90;;;;;;5051904;28;20450;-86
2022/03/09 06:53:39;;;;;;;69.35;36.65;;;0.40;99.90;;;;;;5053609;28;20021;-90
2022/03/09 06:56:05;;;;;;;81.93;41.17;;;0.40;99.90;;;;;;5054214;28;20578;-87
2022/03/09 06:58:31;;;;;;;77.28;36.75;;;0.40;99.90;;;;;;5051604;28;20476;-85
2022/03/09 07:00:57;;;;;;;105.15;48.67;;;0.50;99.90;;;;;;5052327;28;20466;-90
2022/03/09 07:03:23;;;;;;;131.45;57.55;;;0.40;99.90;;;;;;5052779;28;20033;-85
2022/03/09 07:05:49;;;;;;;124.53;51.60;;;0.50;99.90;;;;;;5052781;28;20028;-85
2022/03/09 07:08:14;;;;;;;100.47;43.85;;;0.50;99.90;;;;;;5052856;28;20028;-85
2022/03/09 07:10:41;;;;;;;77.43;37.05;;;0.50;99.90;;;;;;5053680;28;20071;-89
2022/03/09 07:13:06;;;;;;;83.60;41.35;;;0.50;99.90;;;;;;5047838;28;20067;-91
2022/03/09 07:15:32;;;;;;;85.45;43.00;;;0.50;99.90;;;;;;5050089;28;20021;-86
2022/03/09 07:17:58;;;;;;;94.80;43.70;;;0.60;99.90;;;;;;5043584;28;20021;-85
2022/03/09 07:20:24;;;;;;;78.10;36.13;;;0.60;99.90;;;;;;5040446;28;20025;-86
2022/03/09 07:22:50;;;;;;;70.40;36.40;;;0.60;99.90;;;;;;5044417;28;20074;-91
2022/03/09 07:25:16;;;;;;;103.65;46.92;;;0.60;99.90;;;;;;5045625;28;20364;-91
2022/03/09 07:27:42;;;;;;;99.13;51.83;;;0.70;99.90;;;;;;5051480;28;20029;-85
2022/03/09 07:30:08;;;;;;;92.03;46.13;;;0.70;99.90;;;;;;5053272;28;20013;-86
2022/03/09 07:32:34;;;;;;;91.45;44.22;;;0.70;99.90;;;;;;5038590;28;20099;-86
2022/03/09 07:35:00;;;;;;;175.65;83.47;;;0.70;99.90;;;;;;5034197;28;20029;-90
2022/03/09 07:37:27;;;;;;;133.52;62.60;;;0.80;99.90;;;;;;5035096;28;20021;-90
2022/03/09 07:39:53;;;;;;;85.95;42.88;;;0.80;99.90;;;;;;5035252;28;20471;-85
2022/03/09 07:42:19;;;;;;;77.28;38.50;;;0.80;99.90;;;;;;5035946;28;20032;-86
2022/03/09 07:44:44;;;;;;;74.13;37.70;;;0.90;99.90;;;;;;5035464;28;20099;-90
2022/03/09 07:47:10;;;;;;;89.43;44.30;;;0.90;99.90;;;;;;5036397;28;20049;-90
2022/03/09 07:49:37;;;;;;;88.70;39.53;;;1.00;99.90;;;;;;5035813;28;20040;-86
2022/03/09 07:52:05;;;;;;;77.88;37.72;;;1.10;99.90;;;;;;5036863;28;20065;-91
2022/03/09 07:54:31;;;;;;;82.68;41.38;;;1.20;99.90;;;;;;5037401;28;20415;-90
2022/03/09 07:56:57;;;;;;;102.60;43.88;;;1.30;99.90;;;;;;5035252;28;20033;-90
2022/03/09 07:59:23;;;;;;;81.32;38.17;;;1.40;99.90;;;;;;5035013;28;20045;-86
2022/03/09 08:01:52;;;;;;;83.30;39.22;;;1.50;99.90;;;;;;5035744;28;20029;-91
2022/03/09 08:04:22;;;;;;;85.65;39.88;;;1.50;99.90;;;;;;5037387;28;20030;-85
2022/03/09 08:06:49;;;;;;;80.70;39.15;;;1.60;99.90;;;;;;5037775;28;20064;-84
2022/03/09 08:09:15;;;;;;;83.45;40.05;;;1.70;99.90;;;;;;5036358;28;20017;-86
2022/03/09 08:11:42;;;;;;;131.02;62.47;;;1.80;99.60;;;;;;5035804;28;20029;-90
2022/03/09 08:14:08;;;;;;;107.18;48.75;;;1.90;99.20;;;;;;5036909;28;20025;-85
2022/03/09 08:16:33;;;;;;;101.60;51.67;;;2.00;98.00;;;;;;5034811;28;20021;-89
2022/03/09 08:18:59;;;;;;;87.20;49.10;;;2.00;96.20;;;;;;5035365;28;20033;-90
2022/03/09 08:21:25;;;;;;;81.18;46.22;;;2.10;95.90;;;;;;5035520;28;20125;-87
2022/03/09 08:23:51;;;;;;;121.78;48.83;;;2.20;94.50;;;;;;5050753;28;20028;-85
2022/03/09 08:26:16;;;;;;;77.95;39.85;;;2.30;92.80;;;;;;5075883;28;20374;-90
2022/03/09 08:28:42;;;;;;;90.43;39.90;;;2.40;92.20;;;;;;5075504;28;20501;-91
2022/03/09 08:31:08;;;;;;;69.57;39.17;;;2.50;91.00;;;;;;5075480;28;20024;-86
2022/03/09 08:33:34;;;;;;;65.95;33.30;;;2.50;89.40;;;;;;5074620;28;20025;-84
2022/03/09 08:36:00;;;;;;;74.13;38.58;;;2.60;88.40;;;;;;5074777;28;20496;-91
2022/03/09 08:38:26;;;;;;;71.47;36.60;;;2.70;88.50;;;;;;5074999;28;20112;-91
2022/03/09 08:40:51;;;;;;;86.15;41.92;;;2.70;87.00;;;;;;5073523;28;20119;-85
2022/03/09 08:43:17;;;;;;;60.00;31.55;;;2.80;86.80;;;;;;5076601;28;20024;-89
2022/03/09 08:45:44;;;;;;;73.35;36.58;;;2.90;85.20;;;;;;5074301;28;20031;-89
2022/03/09 08:48:10;;;;;;;64.40;36.88;;;3.10;85.60;;;;;;5074116;28;20421;-85
2022/03/09 08:50:36;;;;;;;59.75;32.38;;;3.10;82.20;;;;;;5075500;28;20032;-89
2022/03/09 08:53:03;;;;;;;57.80;29.80;;;3.20;82.00;;;;;;5074603;28;20037;-86
2022/03/09 08:55:30;;;;;;;98.10;39.08;;;3.30;81.40;;;;;;5075011;28;20408;-91
2022/03/09 08:57:56;;;;;;;54.80;29.83;;;3.30;80.20;;;;;;5074273;28;20055;-85
2022/03/09 09:00:22;;;;;;;78.63;36.53;;;3.40;79.40;;;;;;5068728;28;20103;-85
2022/03/09 09:02:48;;;;;;;90.45;42.55;;;3.50;79.50;;;;;;5034296;28;20032;-85
2022/03/09 09:05:14;;;;;;;57.05;29.75;;;3.60;79.50;;;;;;5034695;28;20407;-88
2022/03/09 09:07:41;;;;;;;78.00;35.38;;;3.70;78.50;;;;;;5041869;28;20024;-87
2022/03/09 09:10:07;;;;;;;70.47;32.70;;;3.90;77.10;;;;;;5061773;28;20060;-85
2022/03/09 09:12:33;;;;;;;65.13;30.02;;;3.90;75.90;;;;;;5062575;28;20466;-91
2022/03/09 09:14:59;;;;;;;72.80;32.50;;;3.90;75.40;;;;;;5069924;28;20111;-84
2022/03/09 09:17:25;;;;;;;64.72;31.52;;;3.90;75.70;;;;;;5052851;28;20057;-85
2022/03/09 09:19:51;;;;;;;45.72;26.73;;;4.00;75.80;;;;;;5053806;28;20411;-91
2022/03/09 09:22:17;;;;;;;51.72;26.45;;;4.10;76.10;;;;;;5054257;28;20025;-85
2022/03/09 09:24:43;;;;;;;47.40;25.88;;;4.20;75.10;;;;;;5054438;28;20382;-91
2022/03/09 09:27:09;;;;;;;45.53;24.73;;;4.20;74.90;;;;;;5053297;28;20474;-90
2022/03/09 09:29:36;;;;;;;35.58;22.63;;;4.30;74.00;;;;;;5054063;28;20025;-85
2022/03/09 09:32:02;;;;;;;36.33;20.40;;;4.30;73.80;;;;;;5053735;28;20029;-91
2022/03/09 09:34:28;;;;;;;38.53;21.35;;;4.40;72.50;;;;;;5055371;28;20070;-90
2022/03/09 09:36:54;;;;;;;31.25;18.02;;;4.60;72.20;;;;;;5053238;28;20024;-91
2022/03/09 09:39:20;;;;;;;34.53;18.40;;;4.60;69.80;;;;;;5054663;28;20047;-90
2022/03/09 09:41:52;;;;;;;34.65;18.10;;;4.70;69.10;;;;;;5055361;28;20036;-91
2022/03/09 09:44:21;;;;;;;37.45;19.40;;;4.70;68.50;;;;;;5053844;28;20420;-91
2022/03/09 09:46:46;;;;;;;36.65;18.58;;;4.70;68.00;;;;;;5054698;28;20024;-91
2022/03/09 09:49:14;;;;;;;43.53;19.55;;;4.60;67.50;;;;;;5053884;28;20083;-91
2022/03/09 09:51:41;;;;;;;43.38;19.20;;;4.50;68.60;;;;;;5053192;28;20021;-85
2022/03/09 09:54:07;;;;;;;39.90;19.92;;;4.60;69.30;;;;;;5054893;28;20490;-90
2022/03/09 09:56:41;;;;;;;32.00;18.25;;;4.70;68.60;;;;;;5053545;28;20025;-90
2022/03/09 09:59:07;;;;;;;38.75;20.73;;;4.80;67.90;;;;;;5051844;28;20048;-85
2022/03/09 10:01:33;;;;;;;38.95;20.45;;;4.80;67.50;;;;;;5054645;28;20037;-91
2022/03/09 10:03:59;;;;;;;35.85;18.73;;;4.80;67.50;;;;;;5054582;28;20500;-88
2022/03/09 10:06:25;;;;;;;33.03;17.13;;;4.80;67.50;;;;;;5054572;28;20359;-85
2022/03/09 10:09:00;;;;;;;31.10;18.88;;;4.90;66.20;;;;;;5036697;28;20036;-92
2022/03/09 10:11:44;;;;;;;29.33;17.33;;;5.00;65.60;;;;;;5053847;28;20052;-92
2022/03/09 10:14:10;;;;;;;34.05;16.75;;;4.80;64.20;;;;;;5052888;28;20013;-90
2022/03/09 10:16:36;;;;;;;28.77;14.85;;;4.90;64.30;;;;;;5052458;28;20159;-89
2022/03/09 10:19:02;;;;;;;38.45;19.15;;;5.00;63.10;;;;;;5037269;28;20035;-92
2022/03/09 10:21:40;;;;;;;30.20;16.63;;;5.10;63.40;;;;;;5034370;28;20033;-85
2022/03/09 10:24:08;;;;;;;33.67;16.50;;;5.30;63.00;;;;;;5031675;28;20108;-85
2022/03/09 10:26:39;;;;;;;29.98;15.95;;;5.20;61.80;;;;;;5033842;28;20013;-91
2022/03/09 10:29:07;;;;;;;26.42;14.27;;;5.20;61.50;;;;;;5034105;28;20029;-85
2022/03/09 10:31:38;;;;;;;24.17;12.02;;;5.30;60.50;;;;;;5033261;28;20022;-90
2022/03/09 10:34:06;;;;;;;20.73;12.80;;;5.30;59.80;;;;;;5033510;28;20030;-86
2022/03/09 10:36:32;;;;;;;24.02;12.63;;;5.40;59.10;;;;;;5031827;28;20407;-85
2022/03/09 10:39:12;;;;;;;21.60;11.13;;;5.40;59.10;;;;;;5033738;28;20036;-91
2022/03/09 10:41:38;;;;;;;30.55;14.88;;;5.50;57.80;;;;;;5032237;28;20056;-91
2022/03/09 10:44:04;;;;;;;33.53;14.73;;;5.40;57.50;;;;;;5032530;28;20044;-91
2022/03/09 10:46:50;;;;;;;21.63;12.10;;;5.50;57.50;;;;;;5031989;28;20104;-85
2022/03/09 10:49:24;;;;;;;21.92;11.27;;;5.50;56.30;;;;;;5031576;28;20101;-85
2022/03/09 10:51:51;;;;;;;27.02;15.35;;;5.60;56.20;;;;;;5031633;28;20045;-91
2022/03/09 10:54:26;;;;;;;17.75;11.70;;;5.70;56.80;;;;;;5031822;28;20064;-85
2022/03/09 10:57:10;;;;;;;21.42;11.77;;;5.70;54.80;;;;;;5033301;28;20018;-84
2022/03/09 10:59:51;;;;;;;21.50;11.13;;;5.80;54.90;;;;;;5031258;28;20100;-85
2022/03/09 11:02:21;;;;;;;19.25;9.63;;;5.80;54.00;;;;;;5032255;28;20104;-85
2022/03/09 11:05:07;;;;;;;15.43;9.20;;;5.70;53.20;;;;;;5031540;28;20075;-84
2022/03/09 11:07:38;;;;;;;14.98;8.77;;;5.80;52.80;;;;;;5031677;28;20033;-90
2022/03/09 11:10:05;;;;;;;20.55;12.40;;;5.70;51.40;;;;;;5033233;28;20455;-90
2022/03/09 11:12:32;;;;;;;13.52;9.00;;;5.90;51.40;;;;;;5035737;28;20056;-90
2022/03/09 11:14:58;;;;;;;13.27;7.97;;;6.00;51.00;;;;;;5036808;28;20026;-85
2022/03/09 11:17:24;;;;;;;14.13;6.93;;;6.00;49.00;;;;;;5036710;28;20364;-85
2022/03/09 11:19:50;;;;;;;13.48;7.00;;;6.00;48.60;;;;;;5036578;28;20033;-85
2022/03/09 11:22:17;;;;;;;9.90;5.70;;;6.10;48.30;;;;;;5035448;28;20399;-90
2022/03/09 11:24:43;;;;;;;11.40;6.82;;;6.20;47.90;;;;;;5035469;28;20021;-89
2022/03/09 11:27:10;;;;;;;12.48;6.30;;;6.30;47.90;;;;;;5036766;28;20391;-90
2022/03/09 11:29:37;;;;;;;15.27;8.40;;;6.30;46.80;;;;;;5035348;28;20468;-90
2022/03/09 11:32:07;;;;;;;13.43;7.97;;;6.40;46.50;;;;;;5035868;28;20025;-89
2022/03/09 11:34:42;;;;;;;11.07;6.65;;;6.30;46.20;;;;;;5035981;28;20025;-92
2022/03/09 11:37:19;;;;;;;13.60;6.95;;;6.30;46.60;;;;;;5036089;28;20025;-91
2022/03/09 11:40:10;;;;;;;9.07;6.07;;;6.40;46.70;;;;;;5036081;28;20044;-84
2022/03/09 11:42:38;;;;;;;12.15;7.50;;;6.30;45.30;;;;;;5038187;28;20028;-91
2022/03/09 11:45:22;;;;;;;14.63;7.60;;;6.30;45.10;;;;;;5036627;28;20021;-85
2022/03/09 11:48:03;;;;;;;43.72;22.33;;;6.40;44.90;;;;;;5036683;28;20431;-87
2022/03/09 11:50:32;;;;;;;33.65;16.35;;;6.40;44.50;;;;;;5036304;28;20030;-86
2022/03/09 11:53:08;;;;;;;197.13;86.57;;;6.30;43.40;;;;;;5037816;28;20025;-88
2022/03/09 11:55:35;;;;;;;14.80;8.50;;;6.40;42.80;;;;;;5037105;28;20100;-92
2022/03/09 11:58:04;;;;;;;57.40;21.52;;;6.30;42.10;;;;;;5035378;28;20471;-92
2022/03/09 12:00:29;;;;;;;8.05;5.10;;;6.40;42.20;;;;;;5035146;28;20049;-85
2022/03/09 12:02:56;;;;;;;10.43;5.28;;;6.30;41.80;;;;;;5035237;28;20108;-90
2022/03/09 12:05:25;;;;;;;26.98;11.15;;;6.40;41.50;;;;;;5035813;28;20021;-86
2022/03/09 12:08:01;;;;;;;10.00;5.53;;;6.50;41.60;;;;;;5037178;28;20030;-91
2022/03/09 12:10:42;;;;;;;88.72;30.92;;;6.50;41.30;;;;;;5035460;28;20108;-91
2022/03/09 12:13:09;;;;;;;14.02;6.32;;;6.70;42.00;;;;;;5038150;28;20022;-92
2022/03/09 12:16:00;;;;;;;11.93;5.90;;;6.60;41.40;;;;;;5036713;28;20404;-85
2022/03/09 12:18:46;;;;;;;10.40;5.22;;;6.60;41.30;;;;;;5052233;28;20052;-91
2022/03/09 12:21:14;;;;;;;12.10;6.18;;;6.60;41.40;;;;;;5033614;28;20036;-86
2022/03/09 12:24:05;;;;;;;10.32;6.15;;;6.60;41.50;;;;;;5034817;28;20022;-86
2022/03/09 12:26:46;;;;;;;30.75;10.30;;;6.60;41.10;;;;;;5031379;28;20078;-84
2022/03/09 12:29:18;;;;;;;14.07;7.13;;;6.60;42.00;;;;;;5034580;28;20112;-87
2022/03/09 12:31:44;;;;;;;13.10;6.57;;;6.50;41.60;;;;;;5043828;28;20082;-85
2022/03/09 12:34:23;;;;;;;26.88;11.88;;;6.40;42.00;;;;;;5040850;28;20021;-91
2022/03/09 12:36:49;;;;;;;17.38;8.15;;;6.40;42.20;;;;;;5053121;28;20489;-85